createdAt,value
2023-05-19T00:01:00.431Z,58.84
2023-05-19T00:03:27.434Z,59.32
2023-05-19T00:05:54.453Z,59.05
2023-05-19T00:08:23.563Z,58.71
2023-05-19T00:10:50.673Z,57.57
2023-05-19T00:13:17.586Z,56.49
2023-05-19T00:15:44.653Z,56.18
2023-05-19T00:18:14.006Z,56.02
2023-05-19T00:20:41.387Z,55.82
2023-05-19T00:23:08.200Z,55.53
2023-05-19T00:25:34.866Z,55.64
2023-05-19T00:28:02.467Z,55.21
2023-05-19T00:30:30.450Z,55.37
2023-05-19T00:32:57.419Z,58.59
2023-05-19T00:35:24.615Z,61.11
2023-05-19T00:37:51.231Z,62.32
2023-05-19T00:40:18.951Z,62.53
2023-05-19T00:42:45.716Z,63.53
2023-05-19T00:45:12.430Z,63.30
2023-05-19T00:47:39.522Z,62.90
2023-05-19T00:50:06.914Z,63.34
2023-05-19T00:52:33.792Z,62.49
2023-05-19T00:55:00.924Z,62.19
2023-05-19T00:57:28.315Z,60.99
2023-05-19T00:59:55.468Z,60.16
2023-05-19T01:02:22.246Z,59.97
2023-05-19T01:04:51.148Z,61.50
2023-05-19T01:07:18.871Z,63.23
2023-05-19T01:09:47.361Z,64.55
2023-05-19T01:12:14.298Z,63.58
2023-05-19T01:14:41.758Z,63.03
2023-05-19T01:17:18.784Z,64.26
2023-05-19T01:20:08.276Z,64.12
2023-05-19T01:23:15.060Z,64.13
2023-05-19T01:25:50.739Z,64.34
2023-05-19T01:28:57.741Z,62.93
2023-05-19T01:31:26.732Z,62.83
2023-05-19T01:33:54.587Z,63.50
2023-05-19T01:36:23.362Z,63.47
2023-05-19T01:38:56.797Z,64.45
2023-05-19T01:41:26.244Z,63.12
2023-05-19T01:43:54.277Z,63.49
2023-05-19T01:46:22.246Z,65.26
2023-05-19T01:48:49.403Z,65.44
2023-05-19T01:51:16.060Z,66.32
2023-05-19T01:53:42.911Z,66.26
2023-05-19T01:56:09.834Z,65.97
2023-05-19T01:58:48.156Z,65.74
2023-05-19T02:01:36.630Z,64.43
2023-05-19T02:04:30.485Z,62.98
2023-05-19T02:07:05.338Z,63.40
2023-05-19T02:09:35.593Z,63.85
2023-05-19T02:12:11.011Z,63.59
2023-05-19T02:14:52.811Z,64.06
2023-05-19T02:17:20.828Z,65.28
2023-05-19T02:19:47.694Z,65.29
2023-05-19T02:22:14.914Z,65.00
2023-05-19T02:24:41.601Z,64.76
2023-05-19T02:27:08.359Z,65.87
2023-05-19T02:29:35.002Z,66.35
2023-05-19T02:32:02.148Z,65.81
2023-05-19T02:34:28.958Z,65.74
2023-05-19T02:36:56.564Z,64.84
2023-05-19T02:39:23.313Z,66.00
2023-05-19T02:41:50.084Z,66.79
2023-05-19T02:44:16.783Z,66.36
2023-05-19T02:46:43.634Z,66.58
2023-05-19T02:49:11.215Z,66.44
2023-05-19T02:51:39.094Z,65.79
2023-05-19T02:54:05.867Z,65.43
2023-05-19T02:56:32.599Z,65.63
2023-05-19T02:58:59.290Z,65.41
2023-05-19T03:01:26.358Z,65.35
2023-05-19T03:03:53.231Z,65.43
2023-05-19T03:06:20.012Z,65.43
2023-05-19T03:08:46.741Z,64.80
2023-05-19T03:11:13.649Z,63.68
2023-05-19T03:13:40.282Z,63.00
2023-05-19T03:16:08.036Z,63.61
2023-05-19T03:18:35.150Z,64.26
2023-05-19T03:21:01.885Z,64.47
2023-05-19T03:23:28.563Z,63.42
2023-05-19T03:25:56.289Z,65.29
2023-05-19T03:28:23.502Z,64.96
2023-05-19T03:30:50.948Z,65.34
2023-05-19T03:33:20.806Z,64.33
2023-05-19T03:35:47.873Z,63.55
2023-05-19T03:38:15.404Z,62.64
2023-05-19T03:40:49.491Z,62.71
2023-05-19T03:43:16.338Z,62.06
2023-05-19T03:45:51.798Z,61.84
2023-05-19T03:48:53.851Z,61.24
2023-05-19T03:51:23.416Z,60.76
2023-05-19T03:53:54.030Z,60.25
2023-05-19T03:56:23.087Z,60.12
2023-05-19T03:58:49.935Z,60.48
2023-05-19T04:01:16.636Z,60.21
2023-05-19T04:03:43.347Z,60.48
2023-05-19T04:06:10.130Z,60.26
2023-05-19T04:08:36.831Z,61.06
2023-05-19T04:11:03.673Z,60.68
2023-05-19T04:13:33.151Z,60.24
2023-05-19T04:16:00.028Z,60.53
2023-05-19T04:18:28.817Z,60.21
2023-05-19T04:20:55.832Z,60.21
2023-05-19T04:23:22.573Z,60.68
2023-05-19T04:25:49.762Z,61.57
2023-05-19T04:28:16.590Z,60.62
2023-05-19T04:30:43.283Z,61.24
2023-05-19T04:33:09.987Z,61.13
2023-05-19T04:35:38.209Z,60.62
2023-05-19T04:38:05.851Z,61.40
2023-05-19T04:40:33.954Z,61.14
2023-05-19T04:43:02.375Z,61.71
2023-05-19T04:45:30.327Z,61.38
2023-05-19T04:48:00.149Z,60.95
2023-05-19T04:50:28.627Z,61.17
2023-05-19T04:52:58.935Z,61.29
2023-05-19T04:55:26.077Z,61.82
2023-05-19T04:57:53.254Z,61.41
2023-05-19T05:00:21.298Z,60.81
2023-05-19T05:02:58.744Z,60.75
2023-05-19T05:05:28.370Z,60.55
2023-05-19T05:07:55.491Z,60.77
2023-05-19T05:10:24.137Z,60.54
2023-05-19T05:12:51.614Z,60.17
2023-05-19T05:15:18.842Z,60.02
2023-05-19T05:17:48.760Z,60.39
2023-05-19T05:20:16.414Z,60.16
2023-05-19T05:22:43.351Z,60.03
2023-05-19T05:25:10.958Z,59.83
2023-05-19T05:27:38.194Z,60.13
2023-05-19T05:30:07.402Z,59.66
2023-05-19T05:32:34.368Z,59.80
2023-05-19T05:35:03.315Z,59.90
2023-05-19T05:37:31.372Z,59.93
2023-05-19T05:39:58.192Z,59.81
2023-05-19T05:42:25.861Z,59.64
2023-05-19T05:44:53.832Z,60.86
2023-05-19T05:47:20.906Z,62.21
2023-05-19T05:49:48.670Z,61.47
2023-05-19T05:52:18.740Z,61.58
2023-05-19T05:54:47.935Z,61.49
2023-05-19T05:57:17.557Z,61.43
2023-05-19T05:59:47.072Z,61.61
2023-05-19T06:02:14.700Z,60.99
2023-05-19T06:04:41.832Z,61.45
2023-05-19T06:07:08.928Z,64.15
2023-05-19T06:09:37.936Z,63.06
2023-05-19T06:12:06.836Z,63.17
2023-05-19T06:14:38.911Z,63.80
2023-05-19T06:17:11.502Z,62.68
2023-05-19T06:19:38.511Z,62.64
2023-05-19T06:22:05.520Z,63.87
2023-05-19T06:24:33.128Z,62.75
2023-05-19T06:26:59.784Z,62.79
2023-05-19T06:29:26.657Z,62.56
2023-05-19T06:31:55.746Z,63.01
2023-05-19T06:34:22.505Z,63.32
2023-05-19T06:36:49.247Z,62.45
2023-05-19T06:39:18.269Z,63.70
2023-05-19T06:41:45.680Z,63.34
2023-05-19T06:44:24.522Z,63.84
2023-05-19T06:46:51.272Z,63.08
2023-05-19T06:49:18.069Z,66.26
2023-05-19T06:51:46.111Z,65.03
2023-05-19T06:54:16.006Z,64.51
2023-05-19T06:56:42.952Z,64.55
2023-05-19T06:59:10.454Z,65.57
2023-05-19T07:01:38.758Z,65.29
2023-05-19T07:04:06.165Z,65.04
2023-05-19T07:06:33.972Z,64.75
2023-05-19T07:09:01.113Z,66.05
2023-05-19T07:11:28.606Z,64.51
2023-05-19T07:13:55.739Z,65.17
2023-05-19T07:16:27.328Z,66.08
2023-05-19T07:18:55.323Z,66.40
2023-05-19T07:21:22.281Z,67.02
2023-05-19T07:23:50.093Z,66.76
2023-05-19T07:26:16.816Z,67.06
2023-05-19T07:28:43.630Z,67.88
2023-05-19T07:31:10.377Z,67.36
2023-05-19T07:33:37.124Z,66.78
2023-05-19T07:36:04.615Z,65.44
2023-05-19T07:38:34.510Z,65.98
2023-05-19T07:41:02.085Z,66.27
2023-05-19T07:43:28.772Z,66.15
2023-05-19T07:45:56.431Z,66.34
2023-05-19T07:48:25.645Z,66.40
2023-05-19T07:50:53.373Z,66.87
2023-05-19T07:53:20.605Z,66.50
2023-05-19T07:55:47.493Z,66.44
2023-05-19T07:58:14.802Z,66.63
2023-05-19T08:00:43.224Z,67.19
2023-05-19T08:03:10.243Z,67.43
2023-05-19T08:05:37.561Z,65.99
2023-05-19T08:08:04.661Z,65.45
2023-05-19T08:10:31.607Z,66.22
2023-05-19T08:12:58.508Z,66.70
2023-05-19T08:15:25.555Z,65.95
2023-05-19T08:17:52.574Z,65.38
2023-05-19T08:20:19.417Z,66.25
2023-05-19T08:22:46.215Z,66.59
2023-05-19T08:25:13.891Z,67.66
2023-05-19T08:27:41.436Z,68.59
2023-05-19T08:30:08.842Z,66.52
2023-05-19T08:32:35.761Z,66.42
2023-05-19T08:35:02.488Z,67.43
2023-05-19T08:37:29.181Z,65.73
2023-05-19T08:39:55.811Z,66.63
2023-05-19T08:42:22.971Z,66.00
2023-05-19T08:44:49.741Z,65.56
2023-05-19T08:47:17.850Z,65.81
2023-05-19T08:49:46.239Z,66.19
2023-05-19T08:52:21.020Z,66.19
2023-05-19T08:54:55.869Z,65.96
2023-05-19T08:57:24.939Z,66.69
2023-05-19T08:59:52.238Z,66.23
2023-05-19T09:02:19.925Z,66.13
2023-05-19T09:04:48.132Z,65.49
2023-05-19T09:07:15.588Z,66.84
2023-05-19T09:09:44.077Z,64.87
2023-05-19T09:12:11.714Z,67.87
2023-05-19T09:14:38.855Z,67.99
2023-05-19T09:17:06.004Z,67.78
2023-05-19T09:19:33.066Z,66.43
2023-05-19T09:22:01.460Z,65.68
2023-05-19T09:24:28.571Z,65.48
2023-05-19T09:27:00.202Z,65.40
2023-05-19T09:29:27.232Z,66.30
2023-05-19T09:32:00.521Z,65.92
2023-05-19T09:34:27.768Z,65.84
2023-05-19T09:36:54.644Z,65.31
2023-05-19T09:39:23.120Z,64.49
2023-05-19T09:41:54.218Z,65.49
2023-05-19T09:44:21.144Z,64.95
2023-05-19T09:46:51.826Z,65.40
2023-05-19T09:49:22.916Z,65.41
2023-05-19T09:51:51.232Z,66.16
2023-05-19T09:54:20.424Z,65.27
2023-05-19T09:56:53.169Z,65.68
2023-05-19T09:59:23.887Z,65.12
2023-05-19T10:01:53.483Z,64.78
2023-05-19T10:04:21.132Z,65.60
2023-05-19T10:06:53.490Z,65.52
2023-05-19T10:09:26.433Z,66.98
2023-05-19T10:11:54.673Z,65.78
2023-05-19T10:14:28.704Z,66.53
2023-05-19T10:16:57.693Z,65.90
2023-05-19T10:19:26.262Z,67.09
2023-05-19T10:21:54.073Z,65.34
2023-05-19T10:24:21.698Z,65.92
2023-05-19T10:26:53.410Z,64.37
2023-05-19T10:29:25.552Z,65.30
2023-05-19T10:31:54.289Z,64.85
2023-05-19T10:34:25.987Z,64.89
2023-05-19T10:37:25.017Z,66.17
2023-05-19T10:39:52.552Z,65.18
2023-05-19T10:42:38.064Z,64.89
2023-05-19T10:45:17.039Z,64.92
2023-05-19T10:47:44.631Z,66.03
2023-05-19T10:50:12.072Z,64.56
2023-05-19T10:52:39.789Z,65.01
2023-05-19T10:55:17.666Z,65.25
2023-05-19T10:57:56.791Z,66.19
2023-05-19T11:00:28.261Z,65.86
2023-05-19T11:03:13.574Z,65.69
2023-05-19T11:05:40.626Z,66.53
2023-05-19T11:08:12.083Z,67.45
2023-05-19T11:10:39.226Z,64.90
2023-05-19T11:13:06.797Z,65.70
2023-05-19T11:15:39.094Z,65.44
2023-05-19T11:18:06.185Z,64.70
2023-05-19T11:20:35.071Z,67.08
2023-05-19T11:23:06.841Z,66.56
2023-05-19T11:25:54.378Z,64.52
2023-05-19T11:28:28.042Z,64.97
2023-05-19T11:30:57.802Z,64.90
2023-05-19T11:33:27.583Z,64.55
2023-05-19T11:35:58.528Z,65.16
2023-05-19T11:38:26.440Z,64.08
2023-05-19T11:40:54.142Z,62.48
2023-05-19T11:43:24.993Z,65.14
2023-05-19T11:45:52.069Z,64.25
2023-05-19T11:48:22.656Z,65.26
2023-05-19T11:50:50.206Z,64.80
2023-05-19T11:53:17.646Z,63.23
2023-05-19T11:55:49.037Z,63.38
2023-05-19T11:58:16.780Z,62.48
2023-05-19T12:00:46.725Z,63.77
2023-05-19T12:03:13.735Z,63.38
2023-05-19T12:05:45.921Z,61.33
2023-05-19T12:08:13.448Z,62.77
2023-05-19T12:10:40.573Z,61.92
2023-05-19T12:13:10.692Z,62.10
2023-05-19T12:15:37.825Z,61.29
2023-05-19T12:18:04.687Z,61.65
2023-05-19T12:20:32.617Z,58.55
2023-05-19T12:23:00.807Z,61.60
2023-05-19T12:25:29.227Z,60.25
2023-05-19T12:28:03.247Z,60.08
2023-05-19T12:30:33.099Z,59.18
2023-05-19T12:33:01.994Z,58.92
2023-05-19T12:35:32.130Z,60.75
2023-05-19T12:38:03.661Z,60.64
2023-05-19T12:40:30.642Z,59.46
2023-05-19T12:42:59.317Z,60.14
2023-05-19T12:45:28.587Z,59.79
2023-05-19T12:47:56.008Z,59.56
2023-05-19T12:50:30.877Z,59.82
2023-05-19T12:52:59.816Z,59.78
2023-05-19T12:55:27.029Z,59.25
2023-05-19T12:57:56.973Z,58.99
2023-05-19T13:00:32.628Z,58.19
2023-05-19T13:03:02.859Z,58.65
2023-05-19T13:05:34.313Z,60.56
2023-05-19T13:08:02.314Z,59.37
2023-05-19T13:10:31.337Z,59.85
2023-05-19T13:13:17.447Z,59.55
2023-05-19T13:16:03.196Z,59.50
2023-05-19T13:18:48.263Z,60.46
2023-05-19T13:21:15.817Z,60.79
2023-05-19T13:23:42.522Z,59.03
2023-05-19T13:26:11.531Z,58.43
2023-05-19T13:28:38.197Z,59.66
2023-05-19T13:31:05.038Z,58.30
2023-05-19T13:33:32.132Z,57.89
2023-05-19T13:35:58.868Z,57.37
2023-05-19T13:38:25.574Z,58.47
2023-05-19T13:40:52.383Z,58.67
2023-05-19T13:43:19.058Z,59.12
2023-05-19T13:45:45.833Z,59.33
2023-05-19T13:48:13.133Z,60.28
2023-05-19T13:50:40.031Z,58.88
2023-05-19T13:53:06.817Z,58.11
2023-05-19T13:55:33.674Z,60.19
2023-05-19T13:58:00.475Z,60.89
2023-05-19T14:00:27.280Z,59.92
2023-05-19T14:02:54.040Z,59.73
2023-05-19T14:05:20.909Z,60.02
2023-05-19T14:07:47.654Z,59.82
2023-05-19T14:10:14.477Z,59.38
2023-05-19T14:13:06.496Z,59.49
2023-05-19T14:15:28.261Z,59.48
2023-05-19T14:17:55.114Z,60.37
2023-05-19T14:20:22.072Z,60.52
2023-05-19T14:22:48.764Z,59.36
2023-05-19T14:25:15.739Z,58.79
2023-05-19T14:27:42.481Z,59.45
2023-05-19T14:30:09.730Z,58.82
2023-05-19T14:32:36.610Z,56.50
2023-05-19T14:35:03.766Z,58.14
2023-05-19T14:37:31.911Z,59.71
2023-05-19T14:39:59.677Z,58.84
2023-05-19T14:42:26.347Z,58.63
2023-05-19T14:44:53.107Z,58.27
2023-05-19T14:47:19.917Z,58.17
2023-05-19T14:49:46.921Z,59.02
2023-05-19T14:52:13.613Z,59.99
2023-05-19T14:54:40.441Z,59.44
2023-05-19T14:57:08.222Z,58.16
2023-05-19T14:59:38.519Z,57.79
2023-05-19T15:02:06.113Z,58.32
2023-05-19T15:04:32.844Z,58.14
2023-05-19T15:07:09.839Z,58.39
2023-05-19T15:09:37.523Z,59.59
2023-05-19T15:12:04.346Z,59.35
2023-05-19T15:14:31.428Z,59.63
2023-05-19T15:16:58.711Z,60.96
2023-05-19T15:19:26.178Z,60.58
2023-05-19T15:21:53.191Z,61.06
2023-05-19T15:24:20.982Z,61.11
2023-05-19T15:26:47.858Z,60.99
2023-05-19T15:29:14.628Z,60.06
2023-05-19T15:31:41.643Z,60.13
2023-05-19T15:34:08.736Z,60.33
2023-05-19T15:36:35.588Z,60.22
2023-05-19T15:39:03.729Z,60.51
2023-05-19T15:41:30.814Z,60.77
2023-05-19T15:44:00.156Z,60.66
2023-05-19T15:46:27.238Z,61.23
2023-05-19T15:48:54.037Z,60.48
2023-05-19T15:51:21.017Z,61.23
2023-05-19T15:53:48.032Z,61.26
2023-05-19T15:56:14.833Z,60.37
2023-05-19T15:58:41.649Z,60.55
2023-05-19T16:01:08.797Z,60.72
2023-05-19T16:03:35.756Z,60.63
2023-05-19T16:06:02.710Z,59.90
2023-05-19T16:08:29.689Z,60.27
2023-05-19T16:10:56.403Z,60.73
2023-05-19T16:13:23.235Z,59.35
2023-05-19T16:15:50.060Z,59.72
2023-05-19T16:18:16.991Z,60.00
2023-05-19T16:20:44.127Z,59.46
2023-05-19T16:23:10.954Z,58.57
2023-05-19T16:25:37.711Z,59.79
2023-05-19T16:28:05.128Z,59.12
2023-05-19T16:30:32.231Z,59.59
2023-05-19T16:32:59.637Z,59.74
2023-05-19T16:35:29.384Z,59.31
2023-05-19T16:37:56.258Z,60.67
2023-05-19T16:40:23.025Z,60.46
2023-05-19T16:42:49.876Z,60.96
2023-05-19T16:45:17.538Z,60.90
2023-05-19T16:47:45.541Z,60.66
2023-05-19T16:50:12.987Z,60.86
2023-05-19T16:52:39.808Z,59.75
2023-05-19T16:55:07.127Z,60.48
2023-05-19T16:57:33.932Z,61.13
2023-05-19T17:00:00.699Z,60.79
2023-05-19T17:02:28.216Z,60.79
2023-05-19T17:04:55.469Z,61.20
2023-05-19T17:07:22.175Z,60.61
2023-05-19T17:09:49.113Z,60.33
2023-05-19T17:12:15.992Z,60.46
2023-05-19T17:14:43.589Z,60.62
2023-05-19T17:17:11.036Z,60.60
2023-05-19T17:19:37.952Z,60.22
2023-05-19T17:22:04.729Z,60.00
2023-05-19T17:24:33.812Z,60.45
2023-05-19T17:27:01.034Z,60.91
2023-05-19T17:29:28.065Z,60.29
2023-05-19T17:31:55.478Z,61.72
2023-05-19T17:34:22.331Z,61.69
2023-05-19T17:36:49.803Z,61.15
2023-05-19T17:39:16.688Z,60.11
2023-05-19T17:41:43.400Z,60.61
2023-05-19T17:44:11.186Z,61.14
2023-05-19T17:46:39.383Z,60.74
2023-05-19T17:49:06.603Z,61.28
2023-05-19T17:51:33.637Z,61.26
2023-05-19T17:54:00.769Z,61.20
2023-05-19T17:56:32.052Z,61.07
2023-05-19T17:58:59.212Z,61.05
2023-05-19T18:01:26.306Z,61.48
2023-05-19T18:03:53.600Z,61.53
2023-05-19T18:06:20.593Z,61.38
2023-05-19T18:08:50.405Z,61.47
2023-05-19T18:11:18.245Z,60.89
2023-05-19T18:13:45.028Z,61.33
2023-05-19T18:16:12.771Z,61.57
2023-05-19T18:18:43.398Z,62.13
2023-05-19T18:21:17.660Z,61.59
2023-05-19T18:23:45.472Z,62.74
2023-05-19T18:26:13.114Z,62.24
2023-05-19T18:28:41.305Z,62.51
2023-05-19T18:31:17.190Z,61.97
2023-05-19T18:33:47.037Z,62.26
2023-05-19T18:36:16.370Z,62.56
2023-05-19T18:38:43.117Z,61.86
2023-05-19T18:41:09.846Z,62.56
2023-05-19T18:43:36.536Z,62.42
2023-05-19T18:46:03.288Z,62.45
2023-05-19T18:48:30.205Z,62.48
2023-05-19T18:50:57.204Z,62.77
2023-05-19T18:53:23.959Z,63.41
2023-05-19T18:55:50.895Z,63.10
2023-05-19T18:58:18.194Z,62.88
2023-05-19T19:00:45.179Z,63.14
2023-05-19T19:03:12.211Z,62.48
2023-05-19T19:05:40.111Z,62.67
2023-05-19T19:08:07.090Z,62.66
2023-05-19T19:10:37.291Z,62.50
2023-05-19T19:13:04.285Z,63.49
2023-05-19T19:15:31.667Z,62.99
2023-05-19T19:17:58.513Z,64.09
2023-05-19T19:20:25.554Z,64.05
2023-05-19T19:22:52.924Z,63.83
2023-05-19T19:25:21.296Z,63.64
2023-05-19T19:27:50.671Z,64.15
2023-05-19T19:30:17.523Z,64.56
2023-05-19T19:32:44.391Z,65.03
2023-05-19T19:35:11.264Z,64.64
2023-05-19T19:37:38.024Z,65.12
2023-05-19T19:40:05.401Z,64.65
2023-05-19T19:42:32.438Z,65.45
2023-05-19T19:44:59.348Z,65.01
2023-05-19T19:47:27.231Z,65.47
2023-05-19T19:49:54.011Z,65.73
2023-05-19T19:52:20.749Z,65.13
2023-05-19T19:54:48.121Z,65.21
2023-05-19T19:57:17.204Z,64.63
2023-05-19T19:59:44.097Z,64.22
2023-05-19T20:02:10.985Z,64.26
2023-05-19T20:04:38.104Z,64.76
2023-05-19T20:07:05.059Z,64.71
2023-05-19T20:09:31.792Z,65.49
2023-05-19T20:11:58.720Z,65.17
2023-05-19T20:14:25.505Z,65.66
2023-05-19T20:16:52.302Z,65.66
2023-05-19T20:19:19.011Z,64.89
2023-05-19T20:21:45.760Z,65.31
2023-05-19T20:24:12.552Z,65.72
2023-05-19T20:26:39.350Z,65.56
2023-05-19T20:29:06.053Z,65.83
2023-05-19T20:31:32.785Z,66.17
2023-05-19T20:34:00.133Z,66.65
2023-05-19T20:36:28.290Z,65.36
2023-05-19T20:38:55.034Z,65.94
2023-05-19T20:41:22.581Z,67.02
2023-05-19T20:43:49.305Z,67.37
2023-05-19T20:46:16.236Z,67.21
2023-05-19T20:48:43.040Z,67.33
2023-05-19T20:51:09.797Z,67.82
2023-05-19T20:53:36.640Z,67.63
2023-05-19T20:56:05.231Z,67.10
2023-05-19T20:58:32.057Z,67.48
2023-05-19T21:00:58.910Z,67.25
2023-05-19T21:03:27.112Z,67.42
2023-05-19T21:05:54.993Z,67.42
2023-05-19T21:08:22.077Z,66.84
2023-05-19T21:10:48.832Z,66.74
2023-05-19T21:13:15.662Z,67.02
2023-05-19T21:15:42.328Z,67.13
2023-05-19T21:18:11.357Z,67.88
2023-05-19T21:20:38.768Z,68.14
2023-05-19T21:23:05.779Z,68.43
2023-05-19T21:25:32.511Z,68.65
2023-05-19T21:27:59.458Z,68.47
2023-05-19T21:30:26.192Z,68.33
2023-05-19T21:32:53.305Z,67.81
2023-05-19T21:35:20.088Z,68.35
2023-05-19T21:37:46.743Z,68.21
2023-05-19T21:40:13.493Z,68.11
2023-05-19T21:42:40.186Z,68.21
2023-05-19T21:45:07.527Z,69.11
2023-05-19T21:47:34.232Z,68.25
2023-05-19T21:50:01.133Z,67.98
2023-05-19T21:52:31.384Z,69.01
2023-05-19T21:54:58.381Z,68.71
2023-05-19T21:57:25.283Z,68.59
2023-05-19T21:59:52.018Z,68.81
2023-05-19T22:02:18.736Z,69.13
2023-05-19T22:04:45.756Z,69.41
2023-05-19T22:07:12.421Z,69.13
2023-05-19T22:09:39.234Z,68.80
2023-05-19T22:12:06.523Z,68.61
2023-05-19T22:14:33.329Z,68.14
2023-05-19T22:17:00.168Z,68.44
2023-05-19T22:19:26.896Z,69.01
2023-05-19T22:22:01.739Z,68.85
2023-05-19T22:24:33.031Z,68.29
2023-05-19T22:26:59.745Z,68.59
2023-05-19T22:29:26.407Z,68.23
2023-05-19T22:31:53.111Z,68.19
2023-05-19T22:34:19.981Z,68.22
2023-05-19T22:36:46.776Z,68.41
2023-05-19T22:39:13.612Z,67.63
2023-05-19T22:41:40.748Z,68.06
2023-05-19T22:44:09.111Z,68.53
2023-05-19T22:46:36.205Z,67.75
2023-05-19T22:49:03.186Z,68.77
2023-05-19T22:51:29.894Z,68.23
2023-05-19T22:53:56.651Z,68.52
2023-05-19T22:56:23.402Z,68.64
2023-05-19T22:58:50.519Z,68.96
2023-05-19T23:01:17.429Z,68.97
2023-05-19T23:03:44.589Z,68.51
2023-05-19T23:06:11.433Z,69.50
2023-05-19T23:08:38.062Z,68.87
2023-05-19T23:11:04.809Z,68.98
2023-05-19T23:13:31.751Z,69.28
2023-05-19T23:15:58.476Z,69.24
2023-05-19T23:18:25.244Z,68.95
2023-05-19T23:20:51.875Z,69.35
2023-05-19T23:23:19.258Z,68.64
2023-05-19T23:25:46.084Z,68.44
2023-05-19T23:28:12.795Z,68.77
2023-05-19T23:30:39.687Z,69.17
2023-05-19T23:33:06.497Z,69.14
2023-05-19T23:35:33.451Z,68.78
2023-05-19T23:38:00.395Z,68.46
2023-05-19T23:40:27.096Z,68.79
2023-05-19T23:42:53.819Z,67.99
2023-05-19T23:45:20.580Z,68.61
2023-05-19T23:47:47.310Z,67.84
2023-05-19T23:50:13.989Z,68.45
2023-05-19T23:52:40.752Z,68.82
2023-05-19T23:55:08.312Z,68.62
2023-05-19T23:57:35.069Z,68.63
